sensor_id;sensor_type;location;lat;lon;timestamp;P1;durP1;ratioP1;P2;durP2;ratioP2
6947;SDS011;3513;47.664;9.162;2023-02-21T00:02:04;16.60;;;7.30;;
6947;SDS011;3513;47.664;9.162;2023-02-21T00:04:48;14.30;;;8.23;;
6947;SDS011;3513;47.664;9.162;2023-02-21T00:07:32;16.10;;;7.67;;
6947;SDS011;3513;47.664;9.162;2023-02-21T00:10:17;16.97;;;8.63;;
6947;SDS011;3513;47.664;9.162;2023-02-21T00:13:01;10.83;;;7.60;;
6947;SDS011;3513;47.664;9.162;2023-02-21T00:15:45;16.10;;;8.20;;
6947;SDS011;3513;47.664;9.162;2023-02-21T00:18:33;17.40;;;8.50;;
6947;SDS011;3513;47.664;9.162;2023-02-21T00:21:18;16.20;;;8.83;;
6947;SDS011;3513;47.664;9.162;2023-02-21T00:24:02;12.00;;;8.10;;
6947;SDS011;3513;47.664;9.162;2023-02-21T00:26:46;18.83;;;8.90;;
6947;SDS011;3513;47.664;9.162;2023-02-21T00:29:30;19.30;;;9.57;;
6947;SDS011;3513;47.664;9.162;2023-02-21T00:32:14;18.97;;;9.73;;
6947;SDS011;3513;47.664;9.162;2023-02-21T00:34:58;20.33;;;10.00;;
6947;SDS011;3513;47.664;9.162;2023-02-21T00:37:42;11.93;;;7.50;;
6947;SDS011;3513;47.664;9.162;2023-02-21T00:40:26;9.17;;;6.23;;
6947;SDS011;3513;47.664;9.162;2023-02-21T00:43:10;16.13;;;8.50;;
6947;SDS011;3513;47.664;9.162;2023-02-21T00:45:54;10.37;;;7.60;;
6947;SDS011;3513;47.664;9.162;2023-02-21T00:48:39;10.43;;;6.80;;
6947;SDS011;3513;47.664;9.162;2023-02-21T00:51:23;13.47;;;7.67;;
6947;SDS011;3513;47.664;9.162;2023-02-21T00:54:07;12.20;;;6.90;;
6947;SDS011;3513;47.664;9.162;2023-02-21T00:56:51;12.13;;;7.17;;
6947;SDS011;3513;47.664;9.162;2023-02-21T00:59:35;14.80;;;7.20;;
6947;SDS011;3513;47.664;9.162;2023-02-21T01:02:19;12.27;;;7.93;;
6947;SDS011;3513;47.664;9.162;2023-02-21T01:05:03;12.27;;;7.00;;
6947;SDS011;3513;47.664;9.162;2023-02-21T01:07:48;15.80;;;7.20;;
6947;SDS011;3513;47.664;9.162;2023-02-21T01:10:32;19.40;;;9.10;;
6947;SDS011;3513;47.664;9.162;2023-02-21T01:13:16;15.13;;;8.20;;
6947;SDS011;3513;47.664;9.162;2023-02-21T01:16:00;15.17;;;7.10;;
6947;SDS011;3513;47.664;9.162;2023-02-21T01:18:44;17.27;;;8.33;;
6947;SDS011;3513;47.664;9.162;2023-02-21T01:21:28;13.20;;;7.97;;
6947;SDS011;3513;47.664;9.162;2023-02-21T01:24:13;19.20;;;8.07;;
6947;SDS011;3513;47.664;9.162;2023-02-21T01:26:59;17.83;;;8.23;;
6947;SDS011;3513;47.664;9.162;2023-02-21T01:29:43;15.20;;;8.50;;
6947;SDS011;3513;47.664;9.162;2023-02-21T01:32:27;13.27;;;7.87;;
6947;SDS011;3513;47.664;9.162;2023-02-21T01:35:11;18.10;;;10.00;;
6947;SDS011;3513;47.664;9.162;2023-02-21T01:37:56;17.17;;;9.30;;
6947;SDS011;3513;47.664;9.162;2023-02-21T01:40:40;13.23;;;7.93;;
6947;SDS011;3513;47.664;9.162;2023-02-21T01:43:25;13.70;;;9.17;;
6947;SDS011;3513;47.664;9.162;2023-02-21T01:46:14;18.03;;;9.23;;
6947;SDS011;3513;47.664;9.162;2023-02-21T01:49:02;11.83;;;8.30;;
6947;SDS011;3513;47.664;9.162;2023-02-21T01:51:59;11.23;;;7.90;;
6947;SDS011;3513;47.664;9.162;2023-02-21T01:54:45;14.90;;;9.40;;
6947;SDS011;3513;47.664;9.162;2023-02-21T01:57:32;20.67;;;11.10;;
6947;SDS011;3513;47.664;9.162;2023-02-21T02:00:17;18.80;;;10.20;;
6947;SDS011;3513;47.664;9.162;2023-02-21T02:03:06;21.70;;;8.33;;
6947;SDS011;3513;47.664;9.162;2023-02-21T02:05:53;15.93;;;9.90;;
6947;SDS011;3513;47.664;9.162;2023-02-21T02:08:39;16.80;;;8.13;;
6947;SDS011;3513;47.664;9.162;2023-02-21T02:37:31;15.13;;;9.70;;
6947;SDS011;3513;47.664;9.162;2023-02-21T02:42:53;14.70;;;9.93;;
6947;SDS011;3513;47.664;9.162;2023-02-21T02:48:10;21.73;;;10.73;;
6947;SDS011;3513;47.664;9.162;2023-02-21T02:50:52;60.73;;;13.70;;
6947;SDS011;3513;47.664;9.162;2023-02-21T02:53:20;44.07;;;13.23;;
6947;SDS011;3513;47.664;9.162;2023-02-21T02:58:15;32.23;;;12.80;;
6947;SDS011;3513;47.664;9.162;2023-02-21T03:00:44;37.07;;;14.93;;
6947;SDS011;3513;47.664;9.162;2023-02-21T03:03:42;27.17;;;13.80;;
6947;SDS011;3513;47.664;9.162;2023-02-21T03:09:28;18.13;;;11.90;;
6947;SDS011;3513;47.664;9.162;2023-02-21T03:12:17;18.77;;;11.23;;
6947;SDS011;3513;47.664;9.162;2023-02-21T03:14:56;24.43;;;12.63;;
6947;SDS011;3513;47.664;9.162;2023-02-21T03:17:44;24.50;;;11.83;;
6947;SDS011;3513;47.664;9.162;2023-02-21T03:20:16;22.33;;;11.70;;
6947;SDS011;3513;47.664;9.162;2023-02-21T03:22:42;20.57;;;12.53;;
6947;SDS011;3513;47.664;9.162;2023-02-21T03:25:10;20.53;;;10.60;;
6947;SDS011;3513;47.664;9.162;2023-02-21T03:27:38;23.67;;;10.67;;
6947;SDS011;3513;47.664;9.162;2023-02-21T03:30:06;21.10;;;11.53;;
6947;SDS011;3513;47.664;9.162;2023-02-21T03:32:43;31.50;;;12.80;;
6947;SDS011;3513;47.664;9.162;2023-02-21T03:35:12;40.13;;;14.23;;
6947;SDS011;3513;47.664;9.162;2023-02-21T03:37:40;22.53;;;14.00;;
6947;SDS011;3513;47.664;9.162;2023-02-21T03:40:18;44.97;;;16.77;;
6947;SDS011;3513;47.664;9.162;2023-02-21T03:42:47;47.53;;;16.00;;
6947;SDS011;3513;47.664;9.162;2023-02-21T03:45:14;58.80;;;16.20;;
6947;SDS011;3513;47.664;9.162;2023-02-21T03:47:39;29.80;;;13.30;;
6947;SDS011;3513;47.664;9.162;2023-02-21T03:50:05;38.10;;;15.73;;
6947;SDS011;3513;47.664;9.162;2023-02-21T03:52:31;34.53;;;15.50;;
6947;SDS011;3513;47.664;9.162;2023-02-21T03:54:57;43.80;;;16.97;;
6947;SDS011;3513;47.664;9.162;2023-02-21T03:57:22;31.97;;;16.10;;
6947;SDS011;3513;47.664;9.162;2023-02-21T03:59:48;43.00;;;15.83;;
6947;SDS011;3513;47.664;9.162;2023-02-21T04:02:14;29.90;;;15.33;;
6947;SDS011;3513;47.664;9.162;2023-02-21T04:04:39;35.00;;;15.70;;
6947;SDS011;3513;47.664;9.162;2023-02-21T04:07:05;47.77;;;15.80;;
6947;SDS011;3513;47.664;9.162;2023-02-21T04:09:31;38.73;;;16.77;;
6947;SDS011;3513;47.664;9.162;2023-02-21T04:11:56;68.77;;;14.43;;
6947;SDS011;3513;47.664;9.162;2023-02-21T04:14:22;20.43;;;13.80;;
6947;SDS011;3513;47.664;9.162;2023-02-21T04:16:47;37.93;;;14.60;;
6947;SDS011;3513;47.664;9.162;2023-02-21T04:19:13;30.70;;;15.10;;
6947;SDS011;3513;47.664;9.162;2023-02-21T04:21:39;29.17;;;15.30;;
6947;SDS011;3513;47.664;9.162;2023-02-21T04:24:04;29.27;;;14.37;;
6947;SDS011;3513;47.664;9.162;2023-02-21T04:26:30;32.50;;;15.43;;
6947;SDS011;3513;47.664;9.162;2023-02-21T04:28:55;27.70;;;15.77;;
6947;SDS011;3513;47.664;9.162;2023-02-21T04:31:21;36.87;;;17.30;;
6947;SDS011;3513;47.664;9.162;2023-02-21T04:33:47;29.13;;;16.90;;
6947;SDS011;3513;47.664;9.162;2023-02-21T04:36:13;39.30;;;15.90;;
6947;SDS011;3513;47.664;9.162;2023-02-21T04:38:39;27.30;;;16.43;;
6947;SDS011;3513;47.664;9.162;2023-02-21T04:41:05;36.53;;;17.20;;
6947;SDS011;3513;47.664;9.162;2023-02-21T04:43:31;27.53;;;16.13;;
6947;SDS011;3513;47.664;9.162;2023-02-21T04:45:57;32.40;;;15.00;;
6947;SDS011;3513;47.664;9.162;2023-02-21T04:48:22;23.17;;;12.33;;
6947;SDS011;3513;47.664;9.162;2023-02-21T04:50:48;57.60;;;13.33;;
6947;SDS011;3513;47.664;9.162;2023-02-21T04:53:14;29.30;;;13.47;;
6947;SDS011;3513;47.664;9.162;2023-02-21T04:55:39;105.80;;;17.10;;
6947;SDS011;3513;47.664;9.162;2023-02-21T04:58:05;38.20;;;13.87;;
6947;SDS011;3513;47.664;9.162;2023-02-21T05:00:30;28.20;;;13.63;;
6947;SDS011;3513;47.664;9.162;2023-02-21T05:02:56;49.40;;;13.60;;
6947;SDS011;3513;47.664;9.162;2023-02-21T05:05:22;63.73;;;14.37;;
6947;SDS011;3513;47.664;9.162;2023-02-21T05:07:48;24.77;;;13.40;;
6947;SDS011;3513;47.664;9.162;2023-02-21T05:10:14;529.50;;;185.93;;
6947;SDS011;3513;47.664;9.162;2023-02-21T05:12:41;177.90;;;36.83;;
6947;SDS011;3513;47.664;9.162;2023-02-21T05:15:07;268.60;;;53.53;;
6947;SDS011;3513;47.664;9.162;2023-02-21T05:17:33;383.47;;;98.80;;
6947;SDS011;3513;47.664;9.162;2023-02-21T05:19:59;346.47;;;101.37;;
6947;SDS011;3513;47.664;9.162;2023-02-21T05:22:25;399.17;;;92.73;;
6947;SDS011;3513;47.664;9.162;2023-02-21T05:24:51;502.83;;;70.17;;
6947;SDS011;3513;47.664;9.162;2023-02-21T05:27:17;290.83;;;52.40;;
6947;SDS011;3513;47.664;9.162;2023-02-21T05:29:47;234.87;;;50.87;;
6947;SDS011;3513;47.664;9.162;2023-02-21T05:32:15;209.73;;;32.03;;
6947;SDS011;3513;47.664;9.162;2023-02-21T05:34:41;224.20;;;35.87;;
6947;SDS011;3513;47.664;9.162;2023-02-21T05:37:12;231.23;;;36.63;;
6947;SDS011;3513;47.664;9.162;2023-02-21T05:39:41;236.73;;;31.77;;
6947;SDS011;3513;47.664;9.162;2023-02-21T05:42:07;280.33;;;34.23;;
6947;SDS011;3513;47.664;9.162;2023-02-21T05:44:32;271.07;;;39.60;;
6947;SDS011;3513;47.664;9.162;2023-02-21T05:46:58;298.87;;;40.50;;
6947;SDS011;3513;47.664;9.162;2023-02-21T05:49:26;188.60;;;32.97;;
6947;SDS011;3513;47.664;9.162;2023-02-21T05:51:52;318.10;;;35.63;;
6947;SDS011;3513;47.664;9.162;2023-02-21T05:54:18;399.10;;;38.53;;
6947;SDS011;3513;47.664;9.162;2023-02-21T05:56:46;233.30;;;31.70;;
6947;SDS011;3513;47.664;9.162;2023-02-21T05:59:13;379.80;;;37.47;;
6947;SDS011;3513;47.664;9.162;2023-02-21T06:01:39;337.40;;;33.20;;
6947;SDS011;3513;47.664;9.162;2023-02-21T06:04:05;385.87;;;44.00;;
6947;SDS011;3513;47.664;9.162;2023-02-21T06:06:32;285.60;;;36.60;;
6947;SDS011;3513;47.664;9.162;2023-02-21T06:08:58;414.47;;;48.10;;
6947;SDS011;3513;47.664;9.162;2023-02-21T06:11:26;442.37;;;48.60;;
6947;SDS011;3513;47.664;9.162;2023-02-21T06:13:55;403.17;;;46.67;;
6947;SDS011;3513;47.664;9.162;2023-02-21T06:16:22;418.37;;;44.90;;
6947;SDS011;3513;47.664;9.162;2023-02-21T06:18:49;363.13;;;44.77;;
6947;SDS011;3513;47.664;9.162;2023-02-21T06:21:18;527.23;;;48.90;;
6947;SDS011;3513;47.664;9.162;2023-02-21T06:23:45;546.77;;;48.00;;
6947;SDS011;3513;47.664;9.162;2023-02-21T06:26:11;529.53;;;47.50;;
6947;SDS011;3513;47.664;9.162;2023-02-21T06:28:37;551.00;;;54.17;;
6947;SDS011;3513;47.664;9.162;2023-02-21T06:31:03;515.10;;;47.83;;
6947;SDS011;3513;47.664;9.162;2023-02-21T06:33:29;661.43;;;58.43;;
6947;SDS011;3513;47.664;9.162;2023-02-21T06:35:54;586.50;;;61.27;;
6947;SDS011;3513;47.664;9.162;2023-02-21T06:38:20;516.87;;;50.53;;
6947;SDS011;3513;47.664;9.162;2023-02-21T06:40:46;479.90;;;47.23;;
6947;SDS011;3513;47.664;9.162;2023-02-21T06:43:12;415.30;;;37.40;;
6947;SDS011;3513;47.664;9.162;2023-02-21T06:45:37;240.03;;;25.80;;
6947;SDS011;3513;47.664;9.162;2023-02-21T06:48:03;558.70;;;110.97;;
6947;SDS011;3513;47.664;9.162;2023-02-21T06:50:29;348.37;;;31.47;;
6947;SDS011;3513;47.664;9.162;2023-02-21T06:52:55;352.20;;;23.90;;
6947;SDS011;3513;47.664;9.162;2023-02-21T06:55:21;268.10;;;21.30;;
6947;SDS011;3513;47.664;9.162;2023-02-21T06:57:47;187.70;;;21.07;;
6947;SDS011;3513;47.664;9.162;2023-02-21T07:00:13;68.90;;;16.43;;
6947;SDS011;3513;47.664;9.162;2023-02-21T07:02:40;125.67;;;18.93;;
6947;SDS011;3513;47.664;9.162;2023-02-21T07:05:06;100.43;;;20.60;;
6947;SDS011;3513;47.664;9.162;2023-02-21T07:07:32;75.13;;;24.40;;
6947;SDS011;3513;47.664;9.162;2023-02-21T07:09:58;45.60;;;22.37;;
6947;SDS011;3513;47.664;9.162;2023-02-21T07:12:23;55.13;;;20.40;;
6947;SDS011;3513;47.664;9.162;2023-02-21T07:14:49;45.63;;;17.57;;
6947;SDS011;3513;47.664;9.162;2023-02-21T07:17:15;44.70;;;16.63;;
6947;SDS011;3513;47.664;9.162;2023-02-21T07:19:40;43.07;;;20.33;;
6947;SDS011;3513;47.664;9.162;2023-02-21T07:22:07;42.27;;;21.43;;
6947;SDS011;3513;47.664;9.162;2023-02-21T07:24:33;43.20;;;19.77;;
6947;SDS011;3513;47.664;9.162;2023-02-21T07:26:59;33.60;;;18.53;;
6947;SDS011;3513;47.664;9.162;2023-02-21T07:29:24;46.10;;;21.10;;
6947;SDS011;3513;47.664;9.162;2023-02-21T07:31:50;36.83;;;18.13;;
6947;SDS011;3513;47.664;9.162;2023-02-21T07:34:16;30.80;;;18.47;;
6947;SDS011;3513;47.664;9.162;2023-02-21T07:36:43;93.23;;;24.70;;
6947;SDS011;3513;47.664;9.162;2023-02-21T07:39:10;52.43;;;17.23;;
6947;SDS011;3513;47.664;9.162;2023-02-21T07:41:36;97.87;;;19.80;;
6947;SDS011;3513;47.664;9.162;2023-02-21T07:44:01;290.20;;;25.27;;
6947;SDS011;3513;47.664;9.162;2023-02-21T07:46:27;84.10;;;17.83;;
6947;SDS011;3513;47.664;9.162;2023-02-21T07:48:53;38.50;;;15.67;;
6947;SDS011;3513;47.664;9.162;2023-02-21T07:51:19;27.20;;;14.30;;
6947;SDS011;3513;47.664;9.162;2023-02-21T07:53:45;22.87;;;14.50;;
6947;SDS011;3513;47.664;9.162;2023-02-21T07:56:11;23.40;;;15.10;;
6947;SDS011;3513;47.664;9.162;2023-02-21T07:58:37;27.47;;;15.60;;
6947;SDS011;3513;47.664;9.162;2023-02-21T08:01:03;30.30;;;17.63;;
6947;SDS011;3513;47.664;9.162;2023-02-21T08:03:30;27.20;;;16.53;;
6947;SDS011;3513;47.664;9.162;2023-02-21T08:05:56;30.20;;;17.30;;
6947;SDS011;3513;47.664;9.162;2023-02-21T08:08:22;33.27;;;18.97;;
6947;SDS011;3513;47.664;9.162;2023-02-21T08:10:48;23.07;;;15.60;;
6947;SDS011;3513;47.664;9.162;2023-02-21T08:13:14;26.93;;;16.37;;
6947;SDS011;3513;47.664;9.162;2023-02-21T08:15:40;32.73;;;16.33;;
6947;SDS011;3513;47.664;9.162;2023-02-21T08:18:06;34.47;;;17.60;;
6947;SDS011;3513;47.664;9.162;2023-02-21T08:20:42;27.90;;;16.87;;
6947;SDS011;3513;47.664;9.162;2023-02-21T08:23:08;41.40;;;18.00;;
6947;SDS011;3513;47.664;9.162;2023-02-21T08:25:34;29.83;;;17.73;;
6947;SDS011;3513;47.664;9.162;2023-02-21T08:27:59;28.53;;;18.33;;
6947;SDS011;3513;47.664;9.162;2023-02-21T08:30:25;29.90;;;16.93;;
6947;SDS011;3513;47.664;9.162;2023-02-21T08:32:50;27.50;;;17.47;;
6947;SDS011;3513;47.664;9.162;2023-02-21T08:35:17;27.40;;;16.50;;
6947;SDS011;3513;47.664;9.162;2023-02-21T08:37:44;29.30;;;18.27;;
6947;SDS011;3513;47.664;9.162;2023-02-21T08:40:11;29.87;;;16.97;;
6947;SDS011;3513;47.664;9.162;2023-02-21T08:42:38;32.80;;;18.17;;
6947;SDS011;3513;47.664;9.162;2023-02-21T08:45:04;34.83;;;19.40;;
6947;SDS011;3513;47.664;9.162;2023-02-21T08:47:32;38.00;;;17.13;;
6947;SDS011;3513;47.664;9.162;2023-02-21T08:49:59;31.33;;;17.67;;
6947;SDS011;3513;47.664;9.162;2023-02-21T08:52:25;36.50;;;18.43;;
6947;SDS011;3513;47.664;9.162;2023-02-21T08:54:51;32.37;;;20.20;;
6947;SDS011;3513;47.664;9.162;2023-02-21T08:57:17;33.67;;;20.03;;
6947;SDS011;3513;47.664;9.162;2023-02-21T08:59:43;40.03;;;22.17;;
6947;SDS011;3513;47.664;9.162;2023-02-21T09:02:22;36.70;;;21.80;;
6947;SDS011;3513;47.664;9.162;2023-02-21T09:04:49;36.83;;;20.47;;
6947;SDS011;3513;47.664;9.162;2023-02-21T09:07:16;36.90;;;20.20;;
6947;SDS011;3513;47.664;9.162;2023-02-21T09:09:43;44.90;;;21.97;;
6947;SDS011;3513;47.664;9.162;2023-02-21T09:12:09;33.07;;;20.20;;
6947;SDS011;3513;47.664;9.162;2023-02-21T09:14:36;30.83;;;19.70;;
6947;SDS011;3513;47.664;9.162;2023-02-21T09:17:03;36.17;;;18.93;;
6947;SDS011;3513;47.664;9.162;2023-02-21T09:19:30;35.97;;;20.27;;
6947;SDS011;3513;47.664;9.162;2023-02-21T09:21:56;40.20;;;20.20;;
6947;SDS011;3513;47.664;9.162;2023-02-21T09:24:22;30.30;;;20.20;;
6947;SDS011;3513;47.664;9.162;2023-02-21T09:26:56;41.23;;;21.33;;
6947;SDS011;3513;47.664;9.162;2023-02-21T09:29:23;26.13;;;18.00;;
6947;SDS011;3513;47.664;9.162;2023-02-21T09:31:49;36.77;;;21.77;;
6947;SDS011;3513;47.664;9.162;2023-02-21T09:34:15;42.60;;;23.00;;
6947;SDS011;3513;47.664;9.162;2023-02-21T09:36:41;39.97;;;21.13;;
6947;SDS011;3513;47.664;9.162;2023-02-21T09:39:07;36.00;;;19.87;;
6947;SDS011;3513;47.664;9.162;2023-02-21T09:41:33;30.53;;;18.77;;
6947;SDS011;3513;47.664;9.162;2023-02-21T09:43:59;39.20;;;20.40;;
6947;SDS011;3513;47.664;9.162;2023-02-21T09:46:38;32.60;;;18.13;;
6947;SDS011;3513;47.664;9.162;2023-02-21T09:49:10;33.80;;;18.87;;
6947;SDS011;3513;47.664;9.162;2023-02-21T09:51:50;34.33;;;21.00;;
6947;SDS011;3513;47.664;9.162;2023-02-21T09:54:18;39.20;;;19.13;;
6947;SDS011;3513;47.664;9.162;2023-02-21T09:56:55;42.93;;;21.67;;
6947;SDS011;3513;47.664;9.162;2023-02-21T09:59:24;46.63;;;20.07;;
6947;SDS011;3513;47.664;9.162;2023-02-21T10:10:15;31.60;;;19.77;;
6947;SDS011;3513;47.664;9.162;2023-02-21T10:12:53;30.97;;;18.80;;
6947;SDS011;3513;47.664;9.162;2023-02-21T10:15:44;34.83;;;21.10;;
6947;SDS011;3513;47.664;9.162;2023-02-21T10:18:37;26.43;;;16.90;;
6947;SDS011;3513;47.664;9.162;2023-02-21T10:21:10;49.10;;;20.30;;
6947;SDS011;3513;47.664;9.162;2023-02-21T10:23:45;39.90;;;18.90;;
6947;SDS011;3513;47.664;9.162;2023-02-21T10:26:17;34.07;;;18.87;;
6947;SDS011;3513;47.664;9.162;2023-02-21T10:28:47;27.73;;;19.33;;
6947;SDS011;3513;47.664;9.162;2023-02-21T10:31:16;33.10;;;17.07;;
6947;SDS011;3513;47.664;9.162;2023-02-21T10:33:46;43.40;;;20.23;;
6947;SDS011;3513;47.664;9.162;2023-02-21T10:36:18;38.57;;;19.77;;
6947;SDS011;3513;47.664;9.162;2023-02-21T10:39:03;36.57;;;20.70;;
6947;SDS011;3513;47.664;9.162;2023-02-21T10:41:35;32.03;;;19.10;;
6947;SDS011;3513;47.664;9.162;2023-02-21T10:44:12;31.47;;;18.90;;
6947;SDS011;3513;47.664;9.162;2023-02-21T10:46:43;32.37;;;19.80;;
6947;SDS011;3513;47.664;9.162;2023-02-21T10:52:29;30.07;;;18.70;;
6947;SDS011;3513;47.664;9.162;2023-02-21T10:55:18;27.67;;;17.30;;
6947;SDS011;3513;47.664;9.162;2023-02-21T10:57:46;35.50;;;19.97;;
6947;SDS011;3513;47.664;9.162;2023-02-21T11:00:36;32.30;;;19.33;;
6947;SDS011;3513;47.664;9.162;2023-02-21T11:03:11;37.63;;;19.23;;
6947;SDS011;3513;47.664;9.162;2023-02-21T11:05:52;35.73;;;18.30;;
6947;SDS011;3513;47.664;9.162;2023-02-21T11:11:07;28.43;;;18.07;;
6947;SDS011;3513;47.664;9.162;2023-02-21T11:13:34;29.57;;;18.37;;
6947;SDS011;3513;47.664;9.162;2023-02-21T11:16:11;31.03;;;17.37;;
6947;SDS011;3513;47.664;9.162;2023-02-21T11:18:41;26.27;;;16.97;;
6947;SDS011;3513;47.664;9.162;2023-02-21T11:21:17;30.40;;;15.50;;
6947;SDS011;3513;47.664;9.162;2023-02-21T11:23:56;28.23;;;17.80;;
6947;SDS011;3513;47.664;9.162;2023-02-21T11:26:28;25.03;;;16.70;;
6947;SDS011;3513;47.664;9.162;2023-02-21T11:29:02;31.47;;;17.40;;
6947;SDS011;3513;47.664;9.162;2023-02-21T11:31:33;35.07;;;19.13;;
6947;SDS011;3513;47.664;9.162;2023-02-21T11:34:03;38.87;;;21.73;;
6947;SDS011;3513;47.664;9.162;2023-02-21T11:36:31;33.03;;;18.57;;
6947;SDS011;3513;47.664;9.162;2023-02-21T11:41:55;40.73;;;23.77;;
6947;SDS011;3513;47.664;9.162;2023-02-21T11:46:54;34.43;;;22.37;;
6947;SDS011;3513;47.664;9.162;2023-02-21T11:52:08;31.40;;;19.43;;
6947;SDS011;3513;47.664;9.162;2023-02-21T11:54:38;35.57;;;22.57;;
6947;SDS011;3513;47.664;9.162;2023-02-21T12:11:11;36.50;;;20.53;;
6947;SDS011;3513;47.664;9.162;2023-02-21T12:33:47;38.50;;;18.47;;
6947;SDS011;3513;47.664;9.162;2023-02-21T12:37:13;34.10;;;17.50;;
6947;SDS011;3513;47.664;9.162;2023-02-21T12:47:29;21.73;;;13.97;;
6947;SDS011;3513;47.664;9.162;2023-02-21T12:50:35;28.30;;;16.40;;
6947;SDS011;3513;47.664;9.162;2023-02-21T12:53:46;33.37;;;15.97;;
6947;SDS011;3513;47.664;9.162;2023-02-21T13:01:54;35.33;;;18.00;;
6947;SDS011;3513;47.664;9.162;2023-02-21T13:04:12;27.17;;;17.13;;
6947;SDS011;3513;47.664;9.162;2023-02-21T13:09:41;20.90;;;15.00;;
6947;SDS011;3513;47.664;9.162;2023-02-21T13:12:21;22.47;;;15.67;;
6947;SDS011;3513;47.664;9.162;2023-02-21T13:20:26;26.97;;;16.60;;
6947;SDS011;3513;47.664;9.162;2023-02-21T13:28:44;27.20;;;14.97;;
6947;SDS011;3513;47.664;9.162;2023-02-21T13:31:22;26.97;;;14.10;;
6947;SDS011;3513;47.664;9.162;2023-02-21T13:33:56;23.43;;;12.77;;
6947;SDS011;3513;47.664;9.162;2023-02-21T13:36:27;24.03;;;12.50;;
6947;SDS011;3513;47.664;9.162;2023-02-21T13:38:57;21.10;;;12.80;;
6947;SDS011;3513;47.664;9.162;2023-02-21T13:41:32;46.10;;;15.10;;
6947;SDS011;3513;47.664;9.162;2023-02-21T13:44:03;18.87;;;12.33;;
6947;SDS011;3513;47.664;9.162;2023-02-21T13:57:41;23.27;;;12.00;;
6947;SDS011;3513;47.664;9.162;2023-02-21T14:02:59;21.70;;;11.47;;
6947;SDS011;3513;47.664;9.162;2023-02-21T14:05:27;25.53;;;10.70;;
6947;SDS011;3513;47.664;9.162;2023-02-21T14:13:30;16.57;;;10.63;;
6947;SDS011;3513;47.664;9.162;2023-02-21T14:16:14;13.83;;;11.20;;
6947;SDS011;3513;47.664;9.162;2023-02-21T14:18:46;15.07;;;10.10;;
6947;SDS011;3513;47.664;9.162;2023-02-21T14:24:01;20.97;;;10.70;;
6947;SDS011;3513;47.664;9.162;2023-02-21T14:40:29;13.97;;;10.20;;
6947;SDS011;3513;47.664;9.162;2023-02-21T14:46:22;20.23;;;11.90;;
6947;SDS011;3513;47.664;9.162;2023-02-21T14:55:24;22.20;;;11.60;;
6947;SDS011;3513;47.664;9.162;2023-02-21T15:03:24;14.07;;;7.93;;
6947;SDS011;3513;47.664;9.162;2023-02-21T15:06:11;15.87;;;7.80;;
6947;SDS011;3513;47.664;9.162;2023-02-21T15:08:46;18.80;;;8.83;;
6947;SDS011;3513;47.664;9.162;2023-02-21T15:11:34;12.57;;;8.43;;
6947;SDS011;3513;47.664;9.162;2023-02-21T15:16:49;19.83;;;8.90;;
6947;SDS011;3513;47.664;9.162;2023-02-21T15:19:27;13.50;;;8.47;;
6947;SDS011;3513;47.664;9.162;2023-02-21T15:22:16;8.90;;;7.43;;
6947;SDS011;3513;47.664;9.162;2023-02-21T15:27:31;11.67;;;8.93;;
6947;SDS011;3513;47.664;9.162;2023-02-21T15:30:40;14.43;;;7.77;;
6947;SDS011;3513;47.664;9.162;2023-02-21T15:33:16;19.93;;;8.17;;
6947;SDS011;3513;47.664;9.162;2023-02-21T15:38:28;16.67;;;8.63;;
6947;SDS011;3513;47.664;9.162;2023-02-21T15:40:59;14.63;;;7.97;;
6947;SDS011;3513;47.664;9.162;2023-02-21T15:43:30;13.13;;;7.53;;
6947;SDS011;3513;47.664;9.162;2023-02-21T15:46:19;11.50;;;7.00;;
6947;SDS011;3513;47.664;9.162;2023-02-21T15:48:48;16.27;;;8.47;;
6947;SDS011;3513;47.664;9.162;2023-02-21T15:51:15;16.60;;;8.13;;
6947;SDS011;3513;47.664;9.162;2023-02-21T15:53:41;16.07;;;8.23;;
6947;SDS011;3513;47.664;9.162;2023-02-21T15:56:14;16.67;;;8.40;;
6947;SDS011;3513;47.664;9.162;2023-02-21T15:59:00;25.20;;;9.10;;
6947;SDS011;3513;47.664;9.162;2023-02-21T16:01:32;16.23;;;9.20;;
6947;SDS011;3513;47.664;9.162;2023-02-21T16:06:49;24.47;;;12.97;;
6947;SDS011;3513;47.664;9.162;2023-02-21T16:09:26;21.70;;;11.50;;
6947;SDS011;3513;47.664;9.162;2023-02-21T16:12:06;21.90;;;11.10;;
6947;SDS011;3513;47.664;9.162;2023-02-21T16:15:00;19.93;;;10.97;;
6947;SDS011;3513;47.664;9.162;2023-02-21T16:17:42;27.57;;;12.37;;
6947;SDS011;3513;47.664;9.162;2023-02-21T16:25:53;22.33;;;10.97;;
6947;SDS011;3513;47.664;9.162;2023-02-21T16:28:19;21.70;;;11.13;;
6947;SDS011;3513;47.664;9.162;2023-02-21T16:30:45;23.57;;;11.10;;
6947;SDS011;3513;47.664;9.162;2023-02-21T16:33:12;21.83;;;10.37;;
6947;SDS011;3513;47.664;9.162;2023-02-21T16:35:40;20.60;;;11.70;;
6947;SDS011;3513;47.664;9.162;2023-02-21T16:38:09;18.80;;;11.50;;
6947;SDS011;3513;47.664;9.162;2023-02-21T16:40:41;31.33;;;12.03;;
6947;SDS011;3513;47.664;9.162;2023-02-21T16:43:07;25.77;;;12.60;;
6947;SDS011;3513;47.664;9.162;2023-02-21T16:45:44;23.40;;;13.73;;
6947;SDS011;3513;47.664;9.162;2023-02-21T16:48:14;30.07;;;13.30;;
6947;SDS011;3513;47.664;9.162;2023-02-21T16:50:52;31.07;;;13.30;;
6947;SDS011;3513;47.664;9.162;2023-02-21T16:53:19;29.73;;;13.73;;
6947;SDS011;3513;47.664;9.162;2023-02-21T16:55:46;29.77;;;12.67;;
6947;SDS011;3513;47.664;9.162;2023-02-21T16:58:20;26.70;;;13.20;;
6947;SDS011;3513;47.664;9.162;2023-02-21T17:00:51;23.30;;;13.00;;
6947;SDS011;3513;47.664;9.162;2023-02-21T17:03:19;38.33;;;16.43;;
6947;SDS011;3513;47.664;9.162;2023-02-21T17:05:44;33.57;;;16.50;;
6947;SDS011;3513;47.664;9.162;2023-02-21T17:08:11;34.27;;;18.93;;
6947;SDS011;3513;47.664;9.162;2023-02-21T17:10:37;28.23;;;17.37;;
6947;SDS011;3513;47.664;9.162;2023-02-21T17:13:03;34.80;;;18.67;;
6947;SDS011;3513;47.664;9.162;2023-02-21T17:15:29;32.00;;;20.17;;
6947;SDS011;3513;47.664;9.162;2023-02-21T17:17:59;41.53;;;19.10;;
6947;SDS011;3513;47.664;9.162;2023-02-21T17:20:26;39.97;;;16.47;;
6947;SDS011;3513;47.664;9.162;2023-02-21T17:22:52;45.13;;;18.53;;
6947;SDS011;3513;47.664;9.162;2023-02-21T17:25:19;33.53;;;18.17;;
6947;SDS011;3513;47.664;9.162;2023-02-21T17:27:46;29.17;;;17.13;;
6947;SDS011;3513;47.664;9.162;2023-02-21T17:30:12;25.27;;;15.50;;
6947;SDS011;3513;47.664;9.162;2023-02-21T17:32:38;25.30;;;15.00;;
6947;SDS011;3513;47.664;9.162;2023-02-21T17:35:04;31.30;;;17.30;;
6947;SDS011;3513;47.664;9.162;2023-02-21T17:37:30;34.70;;;17.50;;
6947;SDS011;3513;47.664;9.162;2023-02-21T17:39:56;45.53;;;19.60;;
6947;SDS011;3513;47.664;9.162;2023-02-21T17:42:22;24.90;;;11.20;;
6947;SDS011;3513;47.664;9.162;2023-02-21T17:44:48;26.83;;;10.40;;
6947;SDS011;3513;47.664;9.162;2023-02-21T17:47:21;18.37;;;9.67;;
6947;SDS011;3513;47.664;9.162;2023-02-21T17:49:47;27.53;;;10.40;;
6947;SDS011;3513;47.664;9.162;2023-02-21T17:52:15;23.63;;;10.03;;
6947;SDS011;3513;47.664;9.162;2023-02-21T17:54:41;26.83;;;9.90;;
6947;SDS011;3513;47.664;9.162;2023-02-21T17:57:07;21.20;;;8.73;;
6947;SDS011;3513;47.664;9.162;2023-02-21T17:59:37;19.60;;;8.97;;
6947;SDS011;3513;47.664;9.162;2023-02-21T18:02:04;27.83;;;10.77;;
6947;SDS011;3513;47.664;9.162;2023-02-21T18:04:30;20.83;;;7.30;;
6947;SDS011;3513;47.664;9.162;2023-02-21T18:06:56;18.00;;;7.00;;
6947;SDS011;3513;47.664;9.162;2023-02-21T18:09:22;15.23;;;7.17;;
6947;SDS011;3513;47.664;9.162;2023-02-21T18:11:52;22.90;;;7.60;;
6947;SDS011;3513;47.664;9.162;2023-02-21T18:14:20;18.87;;;7.20;;
6947;SDS011;3513;47.664;9.162;2023-02-21T18:16:46;13.53;;;5.80;;
6947;SDS011;3513;47.664;9.162;2023-02-21T18:19:12;14.47;;;6.60;;
6947;SDS011;3513;47.664;9.162;2023-02-21T18:21:37;16.63;;;7.00;;
6947;SDS011;3513;47.664;9.162;2023-02-21T18:24:08;12.07;;;6.07;;
6947;SDS011;3513;47.664;9.162;2023-02-21T18:26:35;14.77;;;6.07;;